Time;durP1;ratioP1;P1;durP2;ratioP2;P2;SDS_P1;SDS_P2;PMS_P1;PMS_P2;Temp;Humidity;BMP_temperature;BMP_pressure;BME280_temperature;BME280_humidity;BME280_pressure;Samples;Min_cycle;Max_cycle;Signal;HPM_P1;HPM_P2
2023/10/26 00:00:40;;;;;;;0.00;0.00;;;;;;;;;;6196151;23;20077;-92
2023/10/26 00:03:06;;;;;;;0.00;0.00;;;;;;;;;;6198039;23;20009;-91
2023/10/26 00:05:32;;;;;;;0.00;0.00;;;;;;;;;;6196441;23;20064;-91
2023/10/26 00:07:58;;;;;;;0.00;0.00;;;;;;;;;;6195293;23;20027;-91
2023/10/26 00:10:24;;;;;;;0.00;0.00;;;;;;;;;;6197843;23;20074;-91
2023/10/26 00:12:50;;;;;;;0.00;0.00;;;;;;;;;;6196883;23;20004;-91
2023/10/26 00:15:16;;;;;;;0.00;0.00;;;;;;;;;;6196625;23;20012;-91
2023/10/26 00:17:45;;;;;;;0.00;0.00;;;;;;;;;;6198364;23;20019;-92
2023/10/26 00:20:11;;;;;;;0.00;0.00;;;;;;;;;;6198586;23;20237;-92
2023/10/26 00:22:37;;;;;;;0.00;0.00;;;;;;;;;;6197255;23;20004;-94
2023/10/26 00:25:03;;;;;;;0.00;0.00;;;;;;;;;;6198609;23;20381;-92
2023/10/26 00:27:29;;;;;;;0.00;0.00;;;;;;;;;;6195935;23;20005;-92
2023/10/26 00:29:55;;;;;;;0.00;0.00;;;;;;;;;;6198493;23;20066;-92
2023/10/26 00:32:21;;;;;;;0.00;0.00;;;;;;;;;;6198249;23;20004;-92
2023/10/26 00:34:47;;;;;;;0.00;0.00;;;;;;;;;;6199495;23;20016;-92
2023/10/26 00:37:13;;;;;;;0.00;0.00;;;;;;;;;;6196471;23;20004;-92
2023/10/26 00:39:39;;;;;;;0.00;0.00;;;;;;;;;;6197294;23;20004;-92
2023/10/26 00:42:05;;;;;;;0.00;0.00;;;;;;;;;;6198491;23;20055;-92
2023/10/26 00:44:31;;;;;;;0.00;0.00;;;;;;;;;;6197923;23;20004;-95
2023/10/26 00:46:57;;;;;;;0.08;0.08;;;;;;;;;;6203722;23;20000;-96
2023/10/26 00:49:23;;;;;;;0.00;0.00;;;;;;;;;;6215824;23;19999;-96
2023/10/26 00:51:55;;;;;;;0.00;0.00;;;;;;;;;;6214719;23;20068;-93
2023/10/26 00:54:21;;;;;;;0.00;0.00;;;;;;;;;;6196999;23;20001;-93
2023/10/26 00:56:48;;;;;;;0.00;0.00;;;;;;;;;;6195347;23;20056;-91
2023/10/26 00:59:15;;;;;;;0.00;0.00;;;11.90;99.90;;;;;;6194471;23;20040;-93
2023/10/26 01:01:41;;;;;;;0.00;0.00;;;;;;;;;;6192176;23;20004;-93
2023/10/26 01:04:07;;;;;;;0.00;0.00;;;;;;;;;;6194124;23;20449;-92
2023/10/26 01:06:33;;;;;;;0.00;0.00;;;;;;;;;;6194780;23;20003;-92
2023/10/26 01:09:08;;;;;;;0.00;0.00;;;;;;;;;;6194458;23;20004;-92
2023/10/26 01:11:34;;;;;;;0.00;0.00;;;;;;;;;;6193765;23;20001;-93
2023/10/26 01:14:00;;;;;;;0.00;0.00;;;;;;;;;;6195830;23;20005;-93
2023/10/26 01:16:26;;;;;;;0.00;0.00;;;;;;;;;;6195520;23;20008;-92
2023/10/26 01:18:52;;;;;;;0.00;0.00;;;;;;;;;;6194985;23;20442;-93
2023/10/26 01:21:21;;;;;;;0.00;0.00;;;;;;;;;;6195673;23;20032;-92
2023/10/26 01:23:47;;;;;;;0.00;0.00;;;;;;;;;;6196915;23;20000;-91
2023/10/26 01:26:13;;;;;;;0.00;0.00;;;;;;;;;;6196982;23;20000;-93
2023/10/26 01:28:39;;;;;;;0.00;0.00;;;;;;;;;;6195338;23;20087;-92
2023/10/26 01:31:05;;;;;;;0.00;0.00;;;;;;;;;;6192967;23;20008;-92
2023/10/26 01:33:34;;;;;;;0.00;0.00;;;;;;;;;;6193302;23;20028;-93
2023/10/26 01:36:00;;;;;;;0.00;0.00;;;;;;;;;;6194991;23;20008;-94
2023/10/26 01:38:26;;;;;;;0.00;0.00;;;;;;;;;;6194336;23;20620;-93
2023/10/26 01:40:52;;;;;;;0.00;0.00;;;;;;;;;;6195004;23;19996;-92
2023/10/26 01:43:18;;;;;;;0.00;0.00;;;;;;;;;;6193955;23;20000;-93
2023/10/26 01:45:46;;;;;;;0.00;0.00;;;;;;;;;;6193831;23;20083;-92
2023/10/26 01:48:15;;;;;;;0.00;0.00;;;;;;;;;;6195594;23;20004;-93
2023/10/26 01:50:41;;;;;;;0.00;0.00;;;;;;;;;;6193644;23;20015;-92
2023/10/26 01:53:07;;;;;;;0.00;0.00;;;;;;;;;;6192575;23;20040;-92
2023/10/26 01:55:33;;;;;;;0.00;0.00;;;;;;;;;;6193913;23;20055;-94
2023/10/26 01:57:59;;;;;;;0.00;0.00;;;;;;;;;;6194158;23;20012;-94
2023/10/26 02:00:25;;;;;;;0.00;0.00;;;;;;;;;;6193018;23;20441;-93
2023/10/26 02:02:51;;;;;;;0.00;0.00;;;;;;;;;;6192970;23;20076;-94
2023/10/26 02:05:17;;;;;;;0.00;0.00;;;;;;;;;;6193355;23;20005;-93
2023/10/26 02:07:43;;;;;;;0.00;0.00;;;;;;;;;;6194114;23;20016;-92
2023/10/26 02:10:13;;;;;;;0.00;0.00;;;11.80;99.90;;;;;;6196038;23;20031;-93
2023/10/26 02:12:39;;;;;;;;;;;11.80;99.90;;;;;;6197155;23;20019;-93
2023/10/26 02:15:05;;;;;;;0.00;0.00;;;;;;;;;;6196155;23;19903;-92
2023/10/26 02:17:34;;;;;;;0.00;0.00;;;;;;;;;;6196088;23;20442;-92
2023/10/26 02:20:00;;;;;;;0.00;0.00;;;;;;;;;;6197176;23;20001;-92
2023/10/26 02:22:26;;;;;;;0.00;0.00;;;;;;;;;;6196679;23;20062;-92
2023/10/26 02:24:52;;;;;;;0.00;0.00;;;;;;;;;;6197499;23;20004;-92
2023/10/26 02:27:18;;;;;;;0.00;0.00;;;;;;;;;;6198481;23;20040;-92
2023/10/26 02:29:44;;;;;;;0.00;0.00;;;;;;;;;;6197597;23;20005;-93
2023/10/26 02:32:10;;;;;;;0.00;0.00;;;;;;;;;;6198246;23;20007;-92
2023/10/26 02:34:35;;;;;;;0.00;0.00;;;;;;;;;;6197230;23;20012;-92
2023/10/26 02:37:01;;;;;;;0.00;0.00;;;;;;;;;;6197650;23;20079;-93
2023/10/26 02:39:27;;;;;;;0.00;0.00;;;;;;;;;;6198344;23;20015;-92
2023/10/26 02:41:53;;;;;;;0.00;0.00;;;;;;;;;;6197657;23;20070;-92
2023/10/26 02:44:19;;;;;;;0.00;0.00;;;;;;;;;;6197204;23;20005;-94
2023/10/26 02:46:45;;;;;;;0.00;0.00;;;;;;;;;;6196805;23;20508;-92
2023/10/26 02:49:11;;;;;;;0.00;0.00;;;;;;;;;;6195771;23;20271;-92
2023/10/26 02:51:40;;;;;;;0.00;0.00;;;;;;;;;;6197312;23;20001;-93
2023/10/26 02:54:13;;;;;;;0.00;0.00;;;;;;;;;;6198760;23;20437;-92
2023/10/26 02:56:39;;;;;;;0.00;0.00;;;;;;;;;;6198267;23;20001;-92
2023/10/26 02:59:08;;;;;;;0.00;0.00;;;;;;;;;;6197107;23;20535;-92
2023/10/26 03:01:37;;;;;;;0.00;0.00;;;;;;;;;;6197826;23;20019;-92
2023/10/26 03:04:03;;;;;;;0.00;0.00;;;;;;;;;;6199093;23;20012;-92
2023/10/26 03:06:29;;;;;;;0.00;0.00;;;;;;;;;;6198410;23;20005;-93
2023/10/26 03:08:55;;;;;;;0.00;0.00;;;;;;;;;;6201138;23;20004;-92
2023/10/26 03:11:21;;;;;;;0.00;0.00;;;;;;;;;;6209281;23;20007;-92
2023/10/26 03:13:47;;;;;;;0.00;0.00;;;;;;;;;;6207532;23;19989;-93
2023/10/26 03:16:13;;;;;;;0.00;0.00;;;;;;;;;;6199477;23;20092;-92
2023/10/26 03:18:39;;;;;;;0.00;0.00;;;;;;;;;;6195446;23;20013;-92
2023/10/26 03:21:05;;;;;;;0.00;0.00;;;;;;;;;;6197843;23;20210;-92
2023/10/26 03:23:31;;;;;;;0.00;0.00;;;;;;;;;;6196817;23;20004;-93
2023/10/26 03:25:57;;;;;;;0.00;0.00;;;;;;;;;;6196245;23;20019;-93
2023/10/26 03:28:23;;;;;;;0.00;0.00;;;;;;;;;;6197188;23;20001;-93
2023/10/26 03:30:49;;;;;;;0.00;0.00;;;;;;;;;;6195682;23;20043;-94
2023/10/26 03:33:15;;;;;;;0.00;0.00;;;;;;;;;;6197596;23;20421;-91
2023/10/26 03:35:41;;;;;;;0.00;0.00;;;;;;;;;;6196395;23;20374;-92
2023/10/26 03:38:07;;;;;;;0.00;0.00;;;;;;;;;;6196881;23;20072;-92
2023/10/26 03:40:34;;;;;;;0.00;0.00;;;;;;;;;;6196937;23;20012;-92
2023/10/26 03:43:00;;;;;;;0.00;0.00;;;;;;;;;;6197401;23;20131;-92
2023/10/26 03:45:28;;;;;;;0.00;0.00;;;;;;;;;;6196562;23;20004;-93
2023/10/26 03:47:57;;;;;;;0.00;0.00;;;;;;;;;;6195639;23;20000;-93
2023/10/26 03:50:23;;;;;;;0.00;0.00;;;;;;;;;;6196599;23;20011;-91
2023/10/26 03:52:50;;;;;;;0.00;0.00;;;;;;;;;;6194923;23;20063;-92
2023/10/26 03:55:16;;;;;;;0.00;0.00;;;;;;;;;;6195757;23;20012;-92
2023/10/26 03:57:43;;;;;;;0.00;0.00;;;;;;;;;;6194549;23;20004;-94
2023/10/26 04:00:10;;;;;;;0.00;0.00;;;;;;;;;;6195803;23;20059;-91
2023/10/26 04:02:36;;;;;;;0.00;0.00;;;;;;;;;;6196539;23;20019;-91
2023/10/26 04:05:04;;;;;;;0.00;0.00;;;;;;;;;;6197571;23;20000;-92
2023/10/26 04:07:30;;;;;;;0.00;0.00;;;;;;;;;;6196066;23;20043;-92
2023/10/26 04:09:56;;;;;;;0.00;0.00;;;;;;;;;;6196396;23;20015;-91
2023/10/26 04:12:22;;;;;;;0.00;0.00;;;;;;;;;;6195039;23;20010;-91
2023/10/26 04:14:48;;;;;;;0.00;0.00;;;;;;;;;;6194884;23;20087;-92
2023/10/26 04:17:15;;;;;;;0.00;0.00;;;;;;;;;;6194762;23;20075;-91
2023/10/26 04:19:41;;;;;;;0.00;0.00;;;;;;;;;;6194646;23;20088;-92
2023/10/26 04:22:07;;;;;;;0.00;0.00;;;;;;;;;;6195028;23;20031;-92
2023/10/26 04:24:34;;;;;;;0.00;0.00;;;;;;;;;;6194735;23;20060;-92
2023/10/26 04:27:00;;;;;;;0.00;0.00;;;;;;;;;;6194766;23;20011;-92
2023/10/26 04:29:26;;;;;;;0.00;0.00;;;;;;;;;;6195200;23;20016;-92
2023/10/26 04:31:52;;;;;;;0.00;0.00;;;;;;;;;;6194746;23;20007;-92
2023/10/26 04:34:18;;;;;;;0.00;0.00;;;;;;;;;;6195299;23;20005;-93
2023/10/26 04:36:44;;;;;;;0.00;0.00;;;;;;;;;;6195901;23;20115;-94
2023/10/26 04:39:10;;;;;;;0.00;0.00;;;;;;;;;;6195466;23;20028;-92
2023/10/26 04:41:36;;;;;;;0.00;0.00;;;;;;;;;;6194955;23;20008;-93
2023/10/26 04:44:05;;;;;;;0.00;0.00;;;;;;;;;;6195528;23;20441;-93
2023/10/26 04:46:31;;;;;;;0.00;0.00;;;;;;;;;;6195258;23;20063;-92
2023/10/26 04:48:57;;;;;;;0.00;0.00;;;;;;;;;;6194412;23;20016;-93
2023/10/26 04:51:23;;;;;;;0.00;0.00;;;;;;;;;;6196797;23;20009;-92
2023/10/26 04:53:49;;;;;;;0.00;0.00;;;;;;;;;;6195978;23;20030;-92
2023/10/26 04:56:15;;;;;;;0.00;0.00;;;;;;;;;;6198053;23;20005;-92
2023/10/26 04:58:43;;;;;;;0.00;0.00;;;;;;;;;;6195552;23;20092;-92
2023/10/26 05:01:09;;;;;;;0.00;0.00;;;;;;;;;;6199303;23;19985;-91
2023/10/26 05:03:36;;;;;;;0.00;0.00;;;;;;;;;;6195465;23;20091;-91
2023/10/26 05:06:02;;;;;;;0.00;0.00;;;;;;;;;;6226289;23;20004;-92
2023/10/26 05:08:28;;;;;;;0.00;0.00;;;;;;;;;;6200591;23;20005;-91
2023/10/26 05:10:54;;;;;;;0.00;0.00;;;;;;;;;;6189299;23;20012;-91
2023/10/26 05:13:21;;;;;;;0.00;0.00;;;;;;;;;;6190868;23;20001;-91
2023/10/26 05:15:47;;;;;;;0.00;0.00;;;;;;;;;;6194526;23;20024;-91
2023/10/26 05:18:13;;;;;;;0.00;0.00;;;;;;;;;;6193239;23;20008;-92
2023/10/26 05:20:39;;;;;;;0.00;0.00;;;;;;;;;;6195955;23;20084;-91
2023/10/26 05:23:08;;;;;;;0.00;0.00;;;;;;;;;;6195351;23;20615;-93
2023/10/26 05:25:36;;;;;;;0.00;0.00;;;;;;;;;;6199807;23;20063;-92
2023/10/26 05:28:02;;;;;;;0.00;0.00;;;;;;;;;;6190006;23;20063;-90
2023/10/26 05:30:28;;;;;;;0.00;0.00;;;;;;;;;;6190614;23;20023;-91
2023/10/26 05:32:54;;;;;;;0.00;0.00;;;;;;;;;;6196664;23;20044;-95
2023/10/26 05:35:20;;;;;;;0.00;0.00;;;;;;;;;;6214453;23;20004;-91
2023/10/26 05:37:46;;;;;;;0.00;0.00;;;;;;;;;;6207270;23;20020;-91
2023/10/26 05:40:12;;;;;;;0.00;0.00;;;;;;;;;;6189305;23;20028;-92
2023/10/26 05:42:38;;;;;;;0.00;0.00;;;;;;;;;;6189129;23;20000;-90
2023/10/26 05:45:04;;;;;;;0.00;0.00;;;;;;;;;;6189702;23;20011;-91
2023/10/26 05:47:30;;;;;;;0.00;0.00;;;;;;;;;;6192257;23;20008;-91
2023/10/26 05:49:56;;;;;;;0.00;0.00;;;;;;;;;;6189026;23;20075;-89
2023/10/26 05:52:22;;;;;;;0.00;0.00;;;;;;;;;;6190366;23;20001;-91
2023/10/26 05:54:48;;;;;;;0.00;0.00;;;;;;;;;;6189698;23;20011;-92
2023/10/26 05:57:14;;;;;;;0.00;0.00;;;;;;;;;;6190131;23;20004;-91
2023/10/26 05:59:40;;;;;;;0.00;0.00;;;;;;;;;;6190288;23;20005;-91
2023/10/26 06:02:06;;;;;;;0.00;0.00;;;;;;;;;;6190709;23;20007;-90
2023/10/26 06:04:32;;;;;;;0.00;0.00;;;;;;;;;;6189901;23;20043;-91
2023/10/26 06:06:59;;;;;;;0.00;0.00;;;;;;;;;;6189326;23;19997;-91
2023/10/26 06:09:25;;;;;;;0.00;0.00;;;;;;;;;;6188877;23;20126;-92
2023/10/26 06:11:52;;;;;;;0.00;0.00;;;;;;;;;;6190268;23;20341;-91
2023/10/26 06:14:18;;;;;;;0.00;0.00;;;;;;;;;;6188159;23;20470;-93
2023/10/26 06:16:45;;;;;;;0.00;0.00;;;11.30;99.90;;;;;;6190012;23;20005;-91
2023/10/26 06:19:11;;;;;;;0.00;0.00;;;;;;;;;;6188841;23;20011;-91
2023/10/26 06:21:38;;;;;;;0.03;0.03;;;;;;;;;;6189104;23;20154;-92
2023/10/26 06:24:05;;;;;;;0.00;0.00;;;;;;;;;;6189232;23;20055;-92
2023/10/26 06:26:31;;;;;;;0.00;0.00;;;;;;;;;;6188474;23;20021;-91
2023/10/26 06:28:57;;;;;;;0.05;0.05;;;;;;;;;;6189816;23;20016;-91
2023/10/26 06:31:23;;;;;;;0.00;0.00;;;;;;;;;;6189586;23;20001;-93
2023/10/26 06:33:49;;;;;;;0.00;0.00;;;;;;;;;;6189399;23;20001;-94
2023/10/26 06:36:15;;;;;;;0.00;0.00;;;;;;;;;;6182334;23;20392;-94
2023/10/26 06:38:41;;;;;;;0.00;0.00;;;;;;;;;;6189344;23;20008;-92
2023/10/26 06:41:08;;;;;;;0.00;0.00;;;;;;;;;;6187756;23;20349;-92
2023/10/26 06:43:36;;;;;;;0.00;0.00;;;;;;;;;;6187898;23;20008;-92
2023/10/26 06:46:02;;;;;;;0.00;0.00;;;;;;;;;;6188419;23;20497;-91
2023/10/26 06:48:28;;;;;;;0.00;0.00;;;;;;;;;;6189702;23;20011;-92
2023/10/26 06:50:58;;;;;;;0.00;0.00;;;;;;;;;;6189149;23;20004;-91
2023/10/26 06:53:24;;;;;;;0.00;0.00;;;;;;;;;;6188699;23;20084;-92
2023/10/26 06:55:51;;;;;;;0.00;0.00;;;;;;;;;;6188848;23;20055;-91
2023/10/26 06:58:17;;;;;;;0.00;0.00;;;;;;;;;;6188257;23;20454;-91
2023/10/26 07:00:43;;;;;;;0.00;0.00;;;;;;;;;;6189231;23;20381;-91
2023/10/26 07:03:09;;;;;;;0.00;0.00;;;;;;;;;;6190850;23;20023;-93
2023/10/26 07:05:35;;;;;;;0.00;0.00;;;;;;;;;;6191796;23;20001;-91
2023/10/26 07:08:01;;;;;;;0.00;0.00;;;;;;;;;;6190063;23;20040;-93
2023/10/26 07:10:27;;;;;;;0.00;0.00;;;;;;;;;;6191732;23;20009;-90
2023/10/26 07:12:53;;;;;;;0.00;0.00;;;;;;;;;;6192090;23;20340;-92
2023/10/26 07:15:19;;;;;;;0.00;0.00;;;;;;;;;;6193720;23;20008;-91
2023/10/26 07:17:45;;;;;;;0.00;0.00;;;;;;;;;;6191778;23;20106;-90
2023/10/26 07:20:12;;;;;;;0.00;0.00;;;;;;;;;;6192701;23;20007;-92
2023/10/26 07:22:39;;;;;;;0.00;0.00;;;11.20;99.90;;;;;;6192114;23;19997;-91
2023/10/26 07:25:06;;;;;;;0.00;0.00;;;;;;;;;;6191050;23;20330;-91
2023/10/26 07:27:32;;;;;;;0.00;0.00;;;;;;;;;;6191655;23;20328;-91
2023/10/26 07:29:59;;;;;;;0.00;0.00;;;;;;;;;;6190356;23;20165;-90
2023/10/26 07:32:25;;;;;;;0.00;0.00;;;;;;;;;;6192080;23;20009;-91
2023/10/26 07:34:51;;;;;;;0.00;0.00;;;;;;;;;;6191980;23;20013;-91
2023/10/26 07:37:18;;;;;;;0.00;0.00;;;;;;;;;;6191464;23;20008;-92
2023/10/26 07:39:44;;;;;;;0.00;0.00;;;;;;;;;;6191124;23;20004;-90
2023/10/26 07:42:10;;;;;;;0.00;0.00;;;;;;;;;;6191532;23;20007;-90
2023/10/26 07:44:37;;;;;;;0.00;0.00;;;;;;;;;;6191651;23;20008;-91
2023/10/26 07:47:03;;;;;;;0.00;0.00;;;;;;;;;;6191431;23;20079;-91
2023/10/26 07:49:30;;;;;;;0.00;0.00;;;;;;;;;;6191470;23;20452;-92
2023/10/26 07:51:56;;;;;;;0.00;0.00;;;;;;;;;;6190623;23;20070;-91
2023/10/26 07:54:22;;;;;;;0.00;0.00;;;;;;;;;;6191541;23;20012;-91
2023/10/26 07:56:47;;;;;;;0.03;0.03;;;;;;;;;;6191011;23;20329;-91
2023/10/26 07:59:13;;;;;;;0.00;0.00;;;;;;;;;;6191632;23;20015;-91
2023/10/26 08:01:39;;;;;;;0.10;0.10;;;;;;;;;;6192179;23;20011;-90
2023/10/26 08:04:06;;;;;;;0.00;0.00;;;;;;;;;;6191279;23;19996;-91
2023/10/26 08:06:31;;;;;;;0.00;0.00;;;;;;;;;;6191117;23;20011;-91
2023/10/26 08:08:58;;;;;;;0.00;0.00;;;;;;;;;;6190814;23;20072;-91
2023/10/26 08:11:24;;;;;;;0.00;0.00;;;;;;;;;;6191865;23;20011;-90
2023/10/26 08:13:51;;;;;;;0.00;0.00;;;;;;;;;;6191141;23;20005;-92
2023/10/26 08:16:17;;;;;;;0.00;0.00;;;;;;;;;;6191344;23;20012;-91
2023/10/26 08:18:43;;;;;;;0.00;0.00;;;;;;;;;;6190705;23;20045;-91
2023/10/26 08:21:09;;;;;;;0.00;0.00;;;;;;;;;;6191000;23;20005;-90
2023/10/26 08:23:35;;;;;;;0.00;0.00;;;;;;;;;;6190420;23;20551;-91
2023/10/26 08:26:09;;;;;;;0.00;0.00;;;11.30;99.90;;;;;;6190640;23;20001;-91
2023/10/26 08:28:36;;;;;;;0.00;0.00;;;11.30;99.90;;;;;;6191306;23;20016;-90
2023/10/26 08:31:02;;;;;;;0.00;0.00;;;;;;;;;;6190675;23;20017;-93
2023/10/26 08:33:31;;;;;;;0.00;0.00;;;;;;;;;;6191436;23;20068;-91
2023/10/26 08:35:57;;;;;;;0.00;0.00;;;;;;;;;;6190983;23;20007;-91
2023/10/26 08:38:24;;;;;;;0.00;0.00;;;;;;;;;;6190955;23;20012;-92
2023/10/26 08:40:51;;;;;;;0.00;0.00;;;;;;;;;;6190743;23;20001;-91
2023/10/26 08:43:17;;;;;;;0.00;0.00;;;11.50;99.90;;;;;;6190991;23;20008;-91
2023/10/26 08:45:45;;;;;;;0.00;0.00;;;;;;;;;;6190927;23;20051;-91
2023/10/26 08:48:15;;;;;;;0.00;0.00;;;11.40;99.90;;;;;;6190988;23;20001;-90
2023/10/26 08:50:41;;;;;;;0.00;0.00;;;;;;;;;;6190569;23;20058;-90
2023/10/26 08:53:07;;;;;;;0.00;0.00;;;;;;;;;;6190972;23;20013;-91
2023/10/26 08:55:34;;;;;;;0.00;0.00;;;;;;;;;;6190753;23;20067;-91
2023/10/26 08:58:02;;;;;;;0.00;0.00;;;;;;;;;;6190928;23;20035;-91
2023/10/26 09:00:32;;;;;;;0.00;0.00;;;;;;;;;;6191163;23;20014;-90
2023/10/26 09:02:58;;;;;;;0.00;0.00;;;;;;;;;;6192551;23;20083;-91
2023/10/26 09:05:24;;;;;;;0.00;0.00;;;;;;;;;;6190780;23;20330;-91
2023/10/26 09:07:53;;;;;;;0.00;0.00;;;;;;;;;;6190650;23;20009;-91
2023/10/26 09:10:29;;;;;;;0.00;0.00;;;;;;;;;;6190571;23;20005;-91
2023/10/26 09:13:05;;;;;;;0.00;0.00;;;11.50;99.90;;;;;;6189780;23;20418;-90
2023/10/26 09:15:49;;;;;;;0.00;0.00;;;11.60;99.90;;;;;;6165795;23;20012;-91
2023/10/26 09:18:15;;;;;;;0.00;0.00;;;;;;;;;;6191797;23;20056;-91
2023/10/26 09:20:42;;;;;;;0.00;0.00;;;;;;;;;;6192197;23;20069;-90
2023/10/26 09:23:27;;;;;;;0.00;0.00;;;11.70;99.90;;;;;;6190975;23;20000;-90
2023/10/26 09:25:59;;;;;;;0.00;0.00;;;;;;;;;;6190281;23;20004;-90
2023/10/26 09:28:25;;;;;;;0.00;0.00;;;;;;;;;;6190680;23;20008;-90
2023/10/26 09:30:59;;;;;;;0.00;0.00;;;11.60;99.90;;;;;;6190940;23;20441;-91
2023/10/26 09:33:26;;;;;;;0.00;0.00;;;11.70;99.90;;;;;;6191194;23;20004;-90
2023/10/26 09:35:52;;;;;;;0.00;0.00;;;;;;;;;;6189846;23;20083;-93
2023/10/26 09:38:51;;;;;;;0.00;0.00;;;11.60;99.90;;;;;;6189797;23;20005;-91
2023/10/26 09:41:21;;;;;;;0.00;0.00;;;11.70;99.90;;;;;;6110310;23;20004;-92
2023/10/26 09:43:48;;;;;;;0.00;0.00;;;;;;;;;;6166161;23;20054;-91
2023/10/26 09:46:15;;;;;;;0.00;0.00;;;11.70;99.90;;;;;;6190212;23;20012;-90
2023/10/26 09:48:40;;;;;;;0.00;0.00;;;;;;;;;;6190337;23;20099;-91
2023/10/26 09:51:07;;;;;;;0.00;0.00;;;;;;;;;;6190497;23;20009;-90
2023/10/26 09:53:36;;;;;;;0.00;0.00;;;11.70;99.90;;;;;;6190264;23;20001;-91
2023/10/26 09:56:04;;;;;;;0.00;0.00;;;11.60;99.90;;;;;;6190216;23;20336;-91
2023/10/26 09:58:33;;;;;;;0.00;0.00;;;;;;;;;;6192174;23;20005;-91
2023/10/26 10:00:59;;;;;;;0.00;0.00;;;;;;;;;;6190345;23;20009;-90
2023/10/26 10:03:28;;;;;;;0.00;0.00;;;;;;;;;;6190214;23;20028;-90
2023/10/26 10:05:55;;;;;;;0.00;0.00;;;;;;;;;;6190705;23;20434;-91
2023/10/26 10:08:58;;;;;;;0.00;0.00;;;11.40;99.90;;;;;;6215551;23;20042;-91
2023/10/26 10:11:25;;;;;;;0.00;0.00;;;;;;;;;;6206680;23;20009;-92
2023/10/26 10:13:59;;;;;;;0.00;0.00;;;;;;;;;;6190528;23;20068;-91
2023/10/26 10:16:34;;;;;;;0.00;0.00;;;;;;;;;;6191186;23;20014;-92
2023/10/26 10:19:23;;;;;;;0.00;0.00;;;11.20;99.90;;;;;;6190477;23;20009;-92
2023/10/26 10:21:51;;;;;;;0.00;0.00;;;;;;;;;;6189489;23;20011;-91
2023/10/26 10:24:39;;;;;;;0.00;0.00;;;11.20;99.90;;;;;;6189957;23;20005;-92
2023/10/26 10:27:09;;;;;;;0.00;0.00;;;;;;;;;;6188369;23;20004;-92
2023/10/26 10:29:35;;;;;;;0.00;0.00;;;;;;;;;;6189572;23;20016;-92
2023/10/26 10:32:01;;;;;;;0.00;0.00;;;;;;;;;;6189615;23;20005;-91
2023/10/26 10:34:29;;;;;;;0.00;0.00;;;11.20;99.90;;;;;;6190099;23;20017;-91
2023/10/26 10:37:11;;;;;;;0.00;0.00;;;;;;;;;;6189539;23;20450;-93
2023/10/26 10:39:37;;;;;;;0.00;0.00;;;;;;;;;;6190080;23;20403;-92
2023/10/26 10:42:09;;;;;;;0.00;0.00;;;11.30;99.90;;;;;;6189758;23;20005;-93
2023/10/26 10:44:36;;;;;;;0.00;0.00;;;;;;;;;;6191967;23;20008;-92
2023/10/26 10:47:02;;;;;;;0.00;0.00;;;;;;;;;;6191744;23;20088;-92
2023/10/26 10:49:29;;;;;;;0.00;0.00;;;;;;;;;;6191679;23;20008;-92
2023/10/26 10:51:55;;;;;;;0.00;0.00;;;;;;;;;;6192139;23;20008;-90
2023/10/26 10:54:22;;;;;;;0.00;0.00;;;;;;;;;;6192435;23;20047;-92
2023/10/26 10:56:49;;;;;;;0.00;0.00;;;;;;;;;;6191839;23;20007;-91
2023/10/26 10:59:20;;;;;;;0.00;0.00;;;11.40;99.90;;;;;;6191640;23;20004;-92
2023/10/26 11:01:47;;;;;;;0.00;0.00;;;;;;;;;;6191907;23;20437;-92
2023/10/26 11:04:13;;;;;;;0.00;0.00;;;;;;;;;;6190908;23;20000;-91
2023/10/26 11:06:49;;;;;;;0.00;0.00;;;11.70;99.90;;;;;;6191679;23;20016;-91
2023/10/26 11:09:37;;;;;;;0.00;0.00;;;11.70;99.90;;;;;;6171286;23;20009;-91
2023/10/26 11:12:11;;;;;;;0.00;0.00;;;11.60;99.90;;;;;;6191445;23;20004;-91
2023/10/26 11:14:36;;;;;;;0.00;0.00;;;;;;;;;;6191288;23;20449;-92
2023/10/26 11:17:03;;;;;;;0.00;0.00;;;;;;;;;;6192104;23;20096;-91
2023/10/26 11:19:29;;;;;;;0.00;0.00;;;;;;;;;;6191709;23;20079;-92
2023/10/26 11:21:55;;;;;;;0.00;0.00;;;;;;;;;;6191805;23;19996;-92
2023/10/26 11:24:30;;;;;;;0.00;0.00;;;12.20;99.90;;;;;;6192311;23;20083;-91
2023/10/26 11:27:08;;;;;;;0.00;0.00;;;;;;;;;;6191375;23;20005;-91
2023/10/26 11:29:34;;;;;;;0.00;0.00;;;;;;;;;;6191721;23;20413;-92
2023/10/26 11:32:00;;;;;;;0.00;0.00;;;;;;;;;;6191677;23;20015;-91
2023/10/26 11:34:27;;;;;;;0.00;0.00;;;;;;;;;;6191091;23;20013;-91
2023/10/26 11:36:53;;;;;;;0.00;0.00;;;;;;;;;;6191280;23;20000;-91
2023/10/26 11:39:19;;;;;;;0.00;0.00;;;;;;;;;;6190745;23;20005;-92
2023/10/26 11:41:53;;;;;;;0.00;0.00;;;;;;;;;;6191648;23;20511;-91
2023/10/26 11:44:25;;;;;;;0.00;0.00;;;;;;;;;;6190873;23;20015;-91
2023/10/26 11:47:00;;;;;;;0.00;0.00;;;12.70;99.90;;;;;;6191734;23;20005;-91
2023/10/26 11:49:42;;;;;;;0.00;0.00;;;;;;;;;;6191187;23;20008;-90
2023/10/26 11:52:08;;;;;;;0.00;0.00;;;;;;;;;;6190690;23;20005;-91
2023/10/26 11:54:34;;;;;;;0.00;0.00;;;;;;;;;;6190731;23;20008;-91
2023/10/26 11:57:00;;;;;;;0.00;0.00;;;;;;;;;;6191257;23;20429;-91
2023/10/26 11:59:26;;;;;;;0.00;0.00;;;;;;;;;;6192073;23;20317;-92
2023/10/26 12:02:02;;;;;;;0.00;0.00;;;;;;;;;;6193180;23;20016;-91
2023/10/26 12:04:28;;;;;;;0.00;0.00;;;;;;;;;;6193361;23;20051;-91
2023/10/26 12:06:54;;;;;;;0.00;0.00;;;;;;;;;;6193066;23;20457;-91
2023/10/26 12:09:19;;;;;;;0.00;0.00;;;;;;;;;;6192239;23;20012;-92
2023/10/26 12:11:46;;;;;;;0.00;0.00;;;;;;;;;;6192686;23;20084;-90
2023/10/26 12:14:12;;;;;;;0.00;0.00;;;;;;;;;;6191213;23;20072;-91
2023/10/26 12:16:38;;;;;;;0.00;0.00;;;;;;;;;;6189792;23;20019;-91
2023/10/26 12:19:04;;;;;;;0.00;0.00;;;;;;;;;;6190309;23;20005;-90
2023/10/26 12:21:30;;;;;;;0.00;0.00;;;;;;;;;;6190510;23;20000;-91
2023/10/26 12:23:56;;;;;;;0.00;0.00;;;;;;;;;;6196638;23;20001;-91
2023/10/26 12:26:22;;;;;;;0.00;0.00;;;;;;;;;;6190525;23;20032;-93
2023/10/26 12:28:49;;;;;;;0.00;0.00;;;;;;;;;;6188557;23;20023;-91
2023/10/26 12:31:15;;;;;;;0.00;0.00;;;;;;;;;;6190580;23;20007;-91
2023/10/26 12:33:41;;;;;;;0.00;0.00;;;;;;;;;;6202420;23;20013;-95
2023/10/26 12:36:07;;;;;;;0.00;0.00;;;;;;;;;;6213733;23;20048;-93
2023/10/26 12:38:33;;;;;;;0.00;0.00;;;;;;;;;;6212300;23;20008;-96
2023/10/26 12:40:59;;;;;;;0.00;0.00;;;;;;;;;;6207032;23;20030;-92
2023/10/26 12:43:25;;;;;;;0.00;0.00;;;;;;;;;;6197036;23;19997;-94
2023/10/26 12:45:53;;;;;;;0.00;0.00;;;;;;;;;;6200316;23;20012;-93
2023/10/26 12:48:19;;;;;;;0.00;0.00;;;;;;;;;;6206252;23;20015;-92
2023/10/26 12:50:48;;;;;;;0.00;0.00;;;;;;;;;;6205034;23;20012;-94
2023/10/26 12:53:14;;;;;;;0.00;0.00;;;;;;;;;;6209006;23;20000;-96
